Time;durP1;ratioP1;P1;durP2;ratioP2;P2;SDS_P1;SDS_P2;PMS_P1;PMS_P2;Temp;Humidity;BMP_temperature;BMP_pressure;BME280_temperature;BME280_humidity;BME280_pressure;Samples;Min_cycle;Max_cycle;Signal;HPM_P1;HPM_P2
2022/03/23 00:01:09;;;;;;;36.95;18.05;;;;;;;-142.75;100.00;78795.28;5049393;28;20029;-65
2022/03/23 00:03:35;;;;;;;34.97;18.83;;;;;;;-142.75;100.00;78791.34;5048272;28;20116;-66
2022/03/23 00:06:01;;;;;;;34.67;17.73;;;;;;;-142.75;100.00;78789.38;5049378;28;20108;-66
2022/03/23 00:08:26;;;;;;;38.15;17.80;;;;;;;-142.75;100.00;78791.34;5049014;28;20029;-67
2022/03/23 00:10:52;;;;;;;38.22;17.83;;;;;;;-142.75;100.00;78795.28;5049222;28;20119;-66
2022/03/23 00:13:17;;;;;;;36.00;18.13;;;;;;;-142.75;100.00;78791.34;5049174;28;20017;-66
2022/03/23 00:15:43;;;;;;;31.92;18.48;;;;;;;-142.75;100.00;78799.22;5049300;28;20024;-66
2022/03/23 00:18:09;;;;;;;34.03;19.10;;;;;;;-142.75;100.00;78807.09;5047835;28;20021;-66
2022/03/23 00:20:34;;;;;;;34.50;17.60;;;;;;;-142.75;100.00;78809.06;5048074;28;20039;-66
2022/03/23 00:22:59;;;;;;;38.10;18.13;;;;;;;-142.75;100.00;78820.88;5049280;28;20111;-65
2022/03/23 00:25:26;;;;;;;43.60;18.48;;;;;;;-142.75;100.00;78816.94;5049514;28;20029;-66
2022/03/23 00:27:51;;;;;;;32.80;17.13;;;;;;;-142.75;100.00;78820.88;5048895;28;20035;-65
2022/03/23 00:30:17;;;;;;;36.25;18.52;;;;;;;-142.75;100.00;78828.78;5048976;28;20055;-66
2022/03/23 00:32:42;;;;;;;33.30;16.85;;;;;;;-142.75;100.00;78822.88;5049189;28;20025;-66
2022/03/23 00:35:08;;;;;;;36.72;18.10;;;;;;;-142.75;100.00;78822.88;5049161;28;20036;-66
2022/03/23 00:37:33;;;;;;;32.42;17.58;;;;;;;-142.75;100.00;78820.88;5048930;28;20041;-66
2022/03/23 00:39:58;;;;;;;34.22;18.25;;;;;;;-142.75;100.00;78826.81;5029025;28;20022;-66
2022/03/23 00:42:24;;;;;;;33.20;17.42;;;;;;;-142.75;100.00;78826.81;5047957;28;20024;-66
2022/03/23 00:44:51;;;;;;;33.17;17.58;;;;;;;-142.75;100.00;78826.81;5049148;28;20036;-66
2022/03/23 00:47:17;;;;;;;29.73;15.77;;;;;;;-142.75;100.00;78830.75;5049050;28;20056;-66
2022/03/23 00:49:42;;;;;;;26.33;13.80;;;;;;;-142.75;100.00;78832.72;5048728;28;20100;-66
2022/03/23 00:52:08;;;;;;;33.63;17.17;;;;;;;-142.75;100.00;78834.69;5050520;28;20068;-67
2022/03/23 00:54:34;;;;;;;31.13;17.40;;;;;;;-142.75;100.00;78838.63;5053061;28;20025;-66
2022/03/23 00:57:01;;;;;;;35.63;17.33;;;;;;;-142.75;100.00;78842.56;5051454;28;20029;-66
2022/03/23 00:59:27;;;;;;;33.42;17.40;;;;;;;-142.75;100.00;78846.50;5052492;28;20021;-67
2022/03/23 01:01:52;;;;;;;34.33;16.83;;;;;;;-142.75;100.00;78850.44;5051438;28;20094;-66
2022/03/23 01:04:18;;;;;;;36.03;17.27;;;;;;;-142.75;100.00;78866.19;5052730;28;20025;-66
2022/03/23 01:06:43;;;;;;;35.17;18.17;;;;;;;-142.75;100.00;78864.22;5052505;28;20035;-66
2022/03/23 01:09:09;;;;;;;41.50;18.42;;;;;;;-142.75;100.00;78870.13;5052245;28;20271;-66
2022/03/23 01:11:34;;;;;;;34.55;16.92;;;;;;;-142.75;100.00;78870.13;5046652;28;20017;-67
2022/03/23 01:13:59;;;;;;;37.05;17.73;;;;;;;-142.75;100.00;78874.06;5051651;28;20056;-67
2022/03/23 01:16:25;;;;;;;30.30;17.00;;;;;;;-142.75;100.00;78864.22;5051394;28;20032;-66
2022/03/23 01:18:50;;;;;;;40.03;18.00;;;;;;;-142.75;100.00;78864.22;5052468;28;20118;-66
2022/03/23 01:21:16;;;;;;;33.55;17.35;;;;;;;-142.75;100.00;78868.16;5046465;28;20276;-66
2022/03/23 01:23:42;;;;;;;37.72;18.63;;;;;;;-142.75;100.00;78858.31;5051842;28;20079;-67
2022/03/23 01:26:09;;;;;;;35.40;18.53;;;;;;;-142.75;100.00;78858.31;5051318;28;20025;-66
2022/03/23 01:28:34;;;;;;;34.40;18.30;;;;;;;-142.75;100.00;78850.44;5050774;28;20017;-67
2022/03/23 01:31:00;;;;;;;31.52;16.88;;;;;;;-142.75;100.00;78866.19;5052181;28;20079;-66
2022/03/23 01:33:25;;;;;;;31.55;16.77;;;;;;;-142.75;100.00;78854.38;5051003;28;20029;-66
2022/03/23 01:35:50;;;;;;;34.45;17.67;;;;;;;-142.75;100.00;78872.09;5052002;28;20056;-66
2022/03/23 01:38:15;;;;;;;28.05;15.45;;;;;;;-142.75;100.00;78858.31;5051908;28;20036;-66
2022/03/23 01:40:41;;;;;;;32.92;16.67;;;;;;;-142.75;100.00;78866.19;5052084;28;20474;-67
2022/03/23 01:43:06;;;;;;;37.70;17.92;;;;;;;-142.75;100.00;78860.28;5052002;28;20017;-66
2022/03/23 01:45:32;;;;;;;31.80;16.70;;;;;;;-142.75;100.00;78866.19;5052052;28;20071;-67
2022/03/23 01:47:57;;;;;;;32.35;16.75;;;;;;;-142.75;100.00;78866.19;5051840;28;20021;-66
2022/03/23 01:50:22;;;;;;;35.03;17.17;;;;;;;-142.75;100.00;78874.06;5051744;28;20067;-66
2022/03/23 01:52:48;;;;;;;35.83;16.90;;;;;;;-142.75;100.00;78881.94;5051782;28;20028;-66
2022/03/23 01:55:14;;;;;;;34.92;18.40;;;;;;;-142.75;100.00;78885.88;5052173;28;20025;-65
2022/03/23 01:57:40;;;;;;;;;;;;;;;-142.75;100.00;78885.88;5052248;28;20021;-66
2022/03/23 02:00:07;;;;;;;35.03;16.87;;;;;;;-142.75;100.00;78889.81;5051295;28;19913;-67
2022/03/23 02:02:32;;;;;;;31.53;16.97;;;;;;;-142.75;100.00;78891.78;5032689;28;20030;-65
2022/03/23 02:04:57;;;;;;;32.38;17.63;;;;;;;-142.75;100.00;78893.78;5050375;28;20407;-66
2022/03/23 02:07:24;;;;;;;36.25;16.75;;;;;;;-142.75;100.00;78891.78;5051574;28;20056;-67
2022/03/23 02:09:50;;;;;;;34.83;17.80;;;;;;;-142.75;100.00;78903.63;5051298;28;20032;-66
2022/03/23 02:12:15;;;;;;;34.67;17.23;;;;;;;-142.75;100.00;78907.56;5051448;28;20029;-66
2022/03/23 02:14:41;;;;;;;36.70;18.48;;;;;;;-142.75;100.00;78911.50;5051520;28;20028;-66
2022/03/23 02:17:06;;;;;;;30.52;17.55;;;;;;;-142.75;100.00;78911.50;5043797;28;20391;-66
2022/03/23 02:19:32;;;;;;;34.28;17.38;;;;;;;-142.75;100.00;78917.41;5050810;28;20017;-66
2022/03/23 02:21:57;;;;;;;35.45;15.73;;;;;;;-142.75;100.00;78925.28;5051326;28;20063;-66
2022/03/23 02:24:33;;;;;;;23.98;13.80;;;;;;;-142.75;100.00;78933.16;5052037;28;20047;-66
2022/03/23 02:27:00;;;;;;;27.43;14.03;;;;;;;-142.75;100.00;78941.03;5051283;28;20114;-66
2022/03/23 02:29:31;;;;;;;26.00;13.77;;;;;;;-142.75;100.00;78944.97;5050843;28;20087;-66
2022/03/23 02:31:58;;;;;;;26.67;13.60;;;;;;;-142.75;100.00;78964.69;5045192;28;20467;-66
2022/03/23 02:34:25;;;;;;;25.17;13.67;;;;;;;-142.75;100.00;78976.50;5050217;28;20033;-65
2022/03/23 02:36:51;;;;;;;20.60;12.60;;;;;;;-142.75;100.00;78978.47;5051008;28;20082;-67
2022/03/23 02:39:16;;;;;;;29.92;13.63;;;;;;;-142.75;100.00;78984.38;5030873;28;20037;-66
2022/03/23 02:41:41;;;;;;;27.35;15.07;;;;;;;-142.75;100.00;78988.31;5049864;28;20051;-66
2022/03/23 02:44:07;;;;;;;30.42;15.95;;;;;;;-142.75;100.00;78996.19;5049667;28;20077;-66
2022/03/23 02:46:35;;;;;;;28.17;15.43;;;;;;;-142.75;100.00;78996.19;5050848;28;20044;-66
2022/03/23 02:49:02;;;;;;;25.53;14.03;;;;;;;-142.75;100.00;78988.31;5050735;28;20155;-66
2022/03/23 02:51:27;;;;;;;26.90;14.73;;;;;;;-142.75;100.00;78984.38;5050547;28;20490;-66
2022/03/23 03:02:38;;;;;;;33.37;15.63;;;;;;;-142.75;100.00;78998.16;5020989;22;20054;-67
2022/03/23 03:05:04;;;;;;;30.37;15.50;;;;;;;-142.75;100.00;78990.28;4989782;28;20493;-68
2022/03/23 03:08:44;;;;;;;32.03;16.13;;;;;;;-142.75;100.00;78988.31;4991195;28;20027;-68
2022/03/23 03:10:16;;;;;;;28.40;14.87;;;;;;;-142.75;100.00;78980.44;4991291;28;20034;-68
2022/03/23 03:12:42;;;;;;;35.83;16.60;;;;;;;-142.75;100.00;78976.50;4991021;28;20033;-68
2022/03/23 03:15:10;;;;;;;29.90;15.37;;;;;;;-142.75;100.00;78984.38;4985793;28;20109;-68
2022/03/23 03:17:35;;;;;;;29.53;16.27;;;;;;;-142.75;100.00;78990.28;4971839;28;20031;-68
2022/03/23 03:20:00;;;;;;;30.60;15.90;;;;;;;-142.75;100.00;79004.06;4983599;28;20105;-68
2022/03/23 03:22:26;;;;;;;25.30;12.67;;;;;;;-142.75;100.00;79008.00;4990618;28;20747;-68
2022/03/23 03:24:51;;;;;;;26.07;12.67;;;;;;;-142.75;100.00;79015.88;4987307;28;20357;-68
2022/03/23 03:27:17;;;;;;;22.85;12.50;;;;;;;-142.75;100.00;79015.88;4989647;28;20033;-68
2022/03/23 03:29:42;;;;;;;21.65;10.68;;;;;;;-142.75;100.00;79031.66;4990337;28;20492;-68
2022/03/23 03:32:07;;;;;;;21.55;11.45;;;;;;;-142.75;100.00;79035.59;4990665;28;20041;-69
2022/03/23 03:34:33;;;;;;;23.15;11.32;;;;;;;-142.75;100.00;79047.41;4990941;28;20022;-69
2022/03/23 03:36:58;;;;;;;21.93;9.80;;;;;;;-142.75;100.00;79059.22;4990700;28;20033;-69
2022/03/23 03:39:23;;;;;;;20.03;11.03;;;;;;;-142.75;100.00;79067.09;4989096;28;20302;-68
2022/03/23 03:41:48;;;;;;;12.20;7.13;;;;;;;-142.75;100.00;79076.94;4979221;28;20035;-68
2022/03/23 03:44:14;;;;;;;10.93;5.53;;;;;;;-142.75;100.00;79082.84;4984105;28;20047;-68
2022/03/23 03:46:40;;;;;;;10.60;6.07;;;;;;;-142.75;100.00;79100.59;4990560;28;20026;-69
2022/03/23 03:49:06;;;;;;;10.33;4.97;;;;;;;-142.75;100.00;79112.41;4987489;28;20053;-68
2022/03/23 03:51:31;;;;;;;8.13;4.68;;;;;;;-142.75;100.00;79132.09;4984751;28;20477;-68
2022/03/23 03:53:56;;;;;;;9.07;5.45;;;;;;;-142.75;100.00;79130.13;4979038;28;20553;-68
2022/03/23 03:56:22;;;;;;;17.40;8.40;;;;;;;-142.75;100.00;79128.16;4984057;28;20149;-69
2022/03/23 03:58:48;;;;;;;28.27;12.37;;;;;;;-142.75;100.00;79126.19;4978267;28;20030;-68
2022/03/23 04:01:14;;;;;;;26.35;14.10;;;;;;;-142.75;100.00;79130.13;4988755;28;20273;-69
2022/03/23 04:03:39;;;;;;;25.83;12.23;;;;;;;-142.75;100.00;79118.31;4990250;28;20448;-69
2022/03/23 04:06:06;;;;;;;31.58;15.05;;;;;;;-142.75;100.00;79116.34;4990072;28;20025;-68
2022/03/23 04:08:31;;;;;;;23.27;10.80;;;;;;;-142.75;100.00;79114.38;4979082;28;20026;-69
2022/03/23 04:10:56;;;;;;;29.57;15.30;;;;;;;-142.75;100.00;79110.44;4990100;28;20031;-68
2022/03/23 04:13:22;;;;;;;26.93;12.80;;;;;;;-142.75;100.00;79124.22;4990293;28;21940;-68
2022/03/23 04:15:48;;;;;;;15.60;7.90;;;;;;;-142.75;100.00;79126.19;4978968;28;20282;-68
2022/03/23 04:18:13;;;;;;;19.27;8.52;;;;;;;-142.75;100.00;79130.13;4969399;28;20109;-68
2022/03/23 04:20:38;;;;;;;10.17;4.80;;;;;;;-142.75;100.00;79126.19;4970691;28;20031;-68
2022/03/23 04:23:03;;;;;;;8.70;3.10;;;;;;;-142.75;100.00;79134.06;4970837;28;20048;-68
2022/03/23 04:25:29;;;;;;;10.00;5.53;;;;;;;-142.75;100.00;79139.97;4971429;28;20114;-67
2022/03/23 04:27:56;;;;;;;12.00;7.13;;;;;;;-142.75;100.00;79141.94;4974447;28;20274;-68
2022/03/23 04:30:28;;;;;;;4.17;2.60;;;;;;;-142.75;100.00;79151.78;4974615;28;20105;-68
2022/03/23 04:32:53;;;;;;;9.43;3.40;;;;;;;-142.75;100.00;79159.69;4974655;28;20396;-68
2022/03/23 04:35:21;;;;;;;6.20;3.30;;;;;;;-142.75;100.00;79165.59;4986730;28;20027;-67
2022/03/23 04:37:47;;;;;;;5.67;3.47;;;;;;;-142.75;100.00;79179.38;4989714;28;20033;-68
2022/03/23 04:40:16;;;;;;;7.18;4.18;;;;;;;-142.75;100.00;79185.28;4989215;28;20419;-69
2022/03/23 04:42:42;;;;;;;4.70;2.63;;;;;;;-142.75;100.00;79189.22;4993272;28;20530;-68
2022/03/23 04:45:09;;;;;;;3.20;2.00;;;;;;;-142.75;100.00;79195.13;4974380;28;20085;-68
2022/03/23 04:47:36;;;;;;;9.77;4.97;;;;;;;-142.75;100.00;79197.09;4974307;28;20031;-68
2022/03/23 04:50:04;;;;;;;7.03;3.67;;;;;;;-142.75;100.00;79201.03;4981827;28;20027;-68
2022/03/23 04:52:30;;;;;;;11.73;6.10;;;;;;;-142.75;100.00;79208.91;4992222;28;20608;-68
2022/03/23 04:54:56;;;;;;;6.03;3.70;;;;;;;-142.75;100.00;79214.81;4990901;28;20026;-69
2022/03/23 04:57:26;;;;;;;16.13;7.90;;;;;;;-142.75;100.00;79210.88;4974318;28;20621;-68
2022/03/23 04:59:52;;;;;;;10.90;5.90;;;;;;;-142.75;100.00;79214.81;4976556;28;20019;-69
2022/03/23 05:02:18;;;;;;;23.90;9.10;;;;;;;-142.75;100.00;79216.78;4972735;28;20025;-68
2022/03/23 05:04:43;;;;;;;11.23;6.30;;;;;;;-142.75;100.00;79208.91;4989127;28;20057;-67
2022/03/23 05:07:09;;;;;;;5.82;3.25;;;;;;;-142.75;100.00;79208.91;4991126;28;20176;-68
2022/03/23 05:09:34;;;;;;;4.72;2.75;;;;;;;-142.75;100.00;79210.88;4986854;28;20027;-68
2022/03/23 05:12:00;;;;;;;7.47;3.38;;;;;;;-142.75;100.00;79212.84;4984826;28;20034;-68
2022/03/23 05:14:25;;;;;;;6.57;3.50;;;;;;;-142.75;100.00;79232.56;4986444;28;20014;-68
2022/03/23 05:16:50;;;;;;;7.18;3.92;;;;;;;-142.75;100.00;79240.44;4988807;28;20023;-68
2022/03/23 05:19:15;;;;;;;9.00;5.27;;;;;;;-142.75;100.00;79252.25;4991137;28;20120;-68
2022/03/23 05:21:41;;;;;;;14.43;7.03;;;;;;;-142.75;100.00;79248.31;4992056;28;20312;-68
2022/03/23 05:24:06;;;;;;;10.93;5.80;;;;;;;-142.75;100.00;79252.25;4990446;28;20049;-69
2022/03/23 05:26:32;;;;;;;15.70;8.05;;;;;;;-142.75;100.00;79248.31;4988081;28;20023;-68
2022/03/23 05:28:57;;;;;;;11.30;6.50;;;;;;;-142.75;100.00;79262.09;4985087;28;20103;-68
2022/03/23 05:31:22;;;;;;;11.45;6.50;;;;;;;-142.75;100.00;79262.09;4975147;28;20089;-68
2022/03/23 05:33:48;;;;;;;9.75;4.88;;;;;;;-142.75;100.00;79275.88;4984401;28;20457;-68
2022/03/23 05:36:14;;;;;;;5.32;2.97;;;;;;;-142.75;100.00;79275.88;4981162;28;20106;-68
2022/03/23 05:38:39;;;;;;;7.80;3.70;;;;;;;-142.75;100.00;79301.50;4990190;28;20377;-68
2022/03/23 05:41:04;;;;;;;7.30;3.85;;;;;;;-142.75;100.00;79307.41;4992665;28;20022;-68
2022/03/23 05:43:30;;;;;;;7.47;3.80;;;;;;;-142.75;100.00;79335.00;4991477;28;20026;-67
2022/03/23 05:45:55;;;;;;;11.77;5.70;;;;;;;-142.75;100.00;79344.84;5007682;28;20372;-68
2022/03/23 05:48:20;;;;;;;11.52;5.65;;;;;;;-142.75;100.00;79338.94;4991397;28;20274;-68
2022/03/23 05:50:46;;;;;;;13.38;6.20;;;;;;;-142.75;100.00;79342.88;4988445;28;20022;-68
2022/03/23 05:53:11;;;;;;;11.48;6.80;;;;;;;-142.75;100.00;79331.03;4991452;28;20077;-68
2022/03/23 05:55:36;;;;;;;19.77;9.80;;;;;;;-142.75;100.00;79329.06;4985601;28;20034;-68
2022/03/23 05:58:03;;;;;;;22.60;10.50;;;;;;;-142.75;100.00;79327.09;4972893;28;20023;-68
2022/03/23 06:00:29;;;;;;;20.03;10.63;;;;;;;-142.75;100.00;79331.03;4988061;28;20271;-68
2022/03/23 06:02:55;;;;;;;14.02;6.93;;;;;;;-142.75;100.00;79331.03;4992450;28;20036;-68
2022/03/23 06:05:20;;;;;;;12.52;6.15;;;;;;;-142.75;100.00;79329.06;4992435;28;20105;-68
2022/03/23 06:07:46;;;;;;;12.50;6.28;;;;;;;-142.75;100.00;79325.13;4992288;28;20026;-68
2022/03/23 06:10:11;;;;;;;11.88;6.03;;;;;;;-142.75;100.00;79311.34;4987524;28;20026;-68
2022/03/23 06:12:37;;;;;;;9.77;5.57;;;;;;;-142.75;100.00;79295.59;4972842;28;20108;-68
2022/03/23 06:15:04;;;;;;;15.70;9.07;;;;;;;-142.75;100.00;79279.84;4972852;28;20030;-68
2022/03/23 06:17:29;;;;;;;20.27;10.70;;;;;;;-142.75;100.00;79262.09;4979588;28;20054;-68
2022/03/23 06:19:54;;;;;;;18.80;10.68;;;;;;;-142.75;100.00;79240.44;4972759;28;20588;-68
2022/03/23 06:22:20;;;;;;;16.92;9.57;;;;;;;-142.75;100.00;79226.66;4990166;28;20036;-68
2022/03/23 06:24:45;;;;;;;21.30;11.32;;;;;;;-142.75;100.00;79208.91;4992328;28;20018;-68
2022/03/23 06:27:10;;;;;;;29.50;16.15;;;;;;;-142.75;100.00;79187.25;4991650;28;20038;-67
2022/03/23 06:29:36;;;;;;;29.95;18.25;;;;;;;-142.75;100.00;79165.59;4973637;28;20100;-67
2022/03/23 06:32:01;;;;;;;32.15;17.67;;;;;;;-142.75;100.00;79138.00;4976353;28;20029;-67
2022/03/23 06:34:27;;;;;;;32.10;17.08;;;;;;;-142.75;100.00;79110.44;4991701;28;20063;-67
2022/03/23 06:36:52;;;;;;;34.83;17.33;;;;;;;-142.75;100.00;79073.00;4980697;28;20030;-67
2022/03/23 06:39:17;;;;;;;32.88;18.13;;;;;;;-142.75;100.00;79031.66;4972150;28;20403;-68
2022/03/23 06:41:43;;;;;;;30.42;16.92;;;;;;;-142.75;100.00;79000.13;4986992;28;20156;-68
2022/03/23 06:44:08;;;;;;;37.38;19.27;;;;;;;-142.75;100.00;78968.63;4991334;28;20034;-68
2022/03/23 06:46:34;;;;;;;38.80;18.73;;;;;;;-142.75;100.00;78946.94;4991022;28;20022;-68
2022/03/23 06:48:59;;;;;;;31.58;17.05;;;;;;;-142.75;100.00;78917.41;4972051;28;20030;-68
2022/03/23 06:51:25;;;;;;;31.67;16.70;;;;;;;-142.75;100.00;78901.66;4978676;28;22072;-68
2022/03/23 06:53:50;;;;;;;35.80;18.40;;;;;;;-142.75;100.00;78866.19;4989974;28;20288;-67
2022/03/23 06:56:16;;;;;;;32.07;17.30;;;;;;;-142.75;100.00;78830.75;4980331;28;20165;-67
2022/03/23 06:58:41;;;;;;;32.45;16.50;;;;;;;-142.75;100.00;78801.19;4979536;28;20339;-67
2022/03/23 07:01:06;;;;;;;37.42;19.25;;;;;;;-142.75;100.00;78779.53;4984580;28;20034;-68
2022/03/23 07:03:32;;;;;;;38.65;19.98;;;;;;;-142.75;100.00;78753.94;4991434;28;20037;-67
2022/03/23 07:05:57;;;;;;;37.20;20.10;;;;;;;-142.75;100.00;78751.97;4991082;28;20153;-68
2022/03/23 07:11:06;;;;;;;36.97;17.10;;;;;;;-142.75;100.00;78698.78;4981689;28;20308;-67
2022/03/23 07:13:32;;;;;;;31.53;17.33;;;;;;;-142.75;100.00;78677.13;4990860;28;20488;-67
2022/03/23 07:15:58;;;;;;;30.48;16.80;;;;;;;-142.75;100.00;78661.34;4980181;28;20277;-67
2022/03/23 07:18:23;;;;;;;27.65;15.25;;;;;;;-142.75;100.00;78661.34;4977992;28;20054;-68
2022/03/23 07:20:48;;;;;;;33.65;16.42;;;;;;;-142.75;100.00;78665.28;4971541;28;20097;-68
2022/03/23 07:23:14;;;;;;;27.52;16.02;;;;;;;-142.75;100.00;78641.66;4971504;28;20476;-68
2022/03/23 07:25:39;;;;;;;29.65;15.98;;;;;;;-142.75;100.00;78625.91;4988879;28;20483;-70
2022/03/23 07:28:05;;;;;;;26.20;15.45;;;;;;;-142.75;100.00;78614.09;4990567;28;20030;-70
2022/03/23 07:30:35;;;;;;;32.83;16.45;;;;;;;-142.75;100.00;78625.91;4990538;28;20034;-70
2022/03/23 07:33:04;;;;;;;33.72;16.83;;;;;;;-142.75;100.00;78582.59;4989383;28;20030;-67
2022/03/23 07:35:29;;;;;;;36.90;16.13;;;;;;;-142.75;100.00;78556.97;4989880;28;20030;-67
2022/03/23 07:37:56;;;;;;;30.23;15.13;;;;;;;-142.75;100.00;78527.44;4989490;28;20037;-68
2022/03/23 07:40:21;;;;;;;27.55;15.80;;;;;;;-142.75;100.00;78507.75;4989574;28;20396;-68
2022/03/23 07:42:47;;;;;;;30.40;16.38;;;;;;;-142.75;100.00;78486.06;4988032;28;20026;-68
2022/03/23 07:45:13;;;;;;;32.00;16.73;;;;;;;-142.75;100.00;78472.28;4987247;28;20033;-68
2022/03/23 07:47:38;;;;;;;31.65;16.45;;;;;;;-142.75;100.00;78466.38;4988340;28;20034;-68
2022/03/23 07:50:04;;;;;;;33.30;15.65;;;;;;;-142.75;100.00;78440.78;4973014;28;20025;-68
2022/03/23 07:52:30;;;;;;;31.92;16.90;;;;;;;-142.75;100.00;78417.16;4976738;28;20121;-68
2022/03/23 07:54:55;;;;;;;27.80;15.40;;;;;;;-142.75;100.00;78391.53;4974728;28;20181;-68
2022/03/23 07:57:20;;;;;;;29.65;16.38;;;;;;;-142.75;100.00;78369.88;4975662;28;20034;-68
2022/03/23 07:59:48;;;;;;;30.45;14.38;;;;;;;-142.75;100.00;78360.03;4980670;28;20019;-68
2022/03/23 08:02:13;;;;;;;28.77;16.27;;;;;;;-142.75;100.00;78340.34;4988835;28;20069;-68
2022/03/23 08:04:39;;;;;;;30.20;15.75;;;;;;;-142.75;100.00;78362.00;4988171;28;20026;-68
2022/03/23 08:07:04;;;;;;;28.05;15.82;;;;;;;-142.75;100.00;78322.63;4984620;28;20503;-68
2022/03/23 08:09:30;;;;;;;31.65;17.50;;;;;;;-142.75;100.00;78326.56;4969551;28;20401;-68
2022/03/23 08:11:56;;;;;;;38.95;20.67;;;;;;;-142.75;100.00;78302.94;4970822;28;20038;-69
2022/03/23 08:14:22;;;;;;;33.72;17.25;;;;;;;-142.75;100.00;78287.16;4970941;28;20031;-69
2022/03/23 08:16:47;;;;;;;39.42;20.52;;;;;;;-142.75;100.00;78277.31;4975383;28;20041;-67
2022/03/23 08:19:13;;;;;;;31.95;16.45;;;;;;;-142.75;100.00;78226.13;4981235;28;20027;-68
2022/03/23 08:21:38;;;;;;;;;;;;;;;-142.75;100.00;78218.25;4989846;28;20038;-68
2022/03/23 08:24:03;;;;;;;28.00;14.57;;;;;;;-142.75;100.00;78208.41;4988248;28;19913;-68
2022/03/23 08:26:29;;;;;;;;;;;;;;;-142.75;100.00;78208.41;4979601;28;20031;-67
2022/03/23 08:28:54;;;;;;;32.97;15.93;;;;;;;-142.75;100.00;78188.72;4985938;28;20350;-67
2022/03/23 08:31:19;;;;;;;;;;;;;;;-142.75;100.00;78170.97;4980465;28;20038;-67
2022/03/23 08:33:45;;;;;;;29.98;15.77;;;;;;;-142.75;100.00;78147.34;4985542;28;20008;-67
2022/03/23 08:36:10;;;;;;;28.90;16.00;;;;;;;-142.75;94.77;78153.25;4986822;28;20133;-66
2022/03/23 08:38:36;;;;;;;31.90;15.82;;;;;;;-142.75;91.51;78123.72;5003613;28;20053;-67
2022/03/23 08:41:06;;;;;;;33.40;16.45;;;;;;;-142.75;86.13;78090.25;4989849;28;20615;-66
2022/03/23 08:43:32;;;;;;;28.00;15.27;;;;;;;-142.75;87.14;78072.53;4986275;28;20027;-68
2022/03/23 08:45:57;;;;;;;30.45;16.70;;;;;;;-142.75;88.93;78090.25;4970489;28;20031;-68
2022/03/23 08:48:22;;;;;;;;;;;;;;;-142.75;82.70;78060.72;4970777;28;20030;-68
2022/03/23 08:50:49;;;;;;;29.17;16.08;;;;;;;-142.75;83.64;78005.56;4970475;28;19922;-68
2022/03/23 08:53:15;;;;;;;26.85;15.63;;;;;;;-142.75;83.38;77997.69;4986648;28;20488;-68
2022/03/23 08:55:41;;;;;;;25.75;14.32;;;;;;;-142.75;91.00;77995.72;4980680;28;20081;-68
2022/03/23 08:58:06;;;;;;;;;;;;;;;-142.75;84.16;77987.84;4994286;28;20551;-66
2022/03/23 09:00:32;;;;;;;28.42;15.50;;;;;;;-142.75;81.72;78003.59;4978271;28;19920;-67
2022/03/23 09:02:57;;;;;;;;;;;;;;;-142.75;83.93;78013.44;4979967;28;20030;-68
2022/03/23 09:05:23;;;;;;;32.08;16.75;;;;;;;-142.75;81.84;78003.59;5014374;23;20344;-67
2022/03/23 09:07:48;;;;;;;;;;;;;;;-142.75;82.48;77962.25;5033832;28;20030;-67
2022/03/23 09:10:15;;;;;;;29.52;17.50;;;;;;;-142.75;82.21;77956.34;5033170;28;19916;-67
2022/03/23 09:12:41;;;;;;;27.23;16.40;;;;;;;-142.75;82.48;77950.44;5034067;28;20056;-67
2022/03/23 09:15:08;;;;;;;;;;;;;;;-142.75;78.94;77893.31;5034115;28;20104;-67
2022/03/23 09:17:33;;;;;;;31.92;16.80;;;;;;;-142.75;78.08;77881.50;5022931;28;20302;-67
2022/03/23 09:20:00;;;;;;;;;;;;;;;-142.75;76.43;77865.75;5021417;28;20105;-67
2022/03/23 09:22:27;;;;;;;29.60;16.55;;;;;;;-142.75;67.92;77830.31;5012751;28;19914;-67
2022/03/23 09:24:52;;;;;;;29.40;15.80;;;;;;;-142.75;67.94;77810.63;5021693;28;20029;-67
2022/03/23 09:27:17;;;;;;;;;;;;;;;-142.75;64.96;77751.56;5014617;28;20051;-68
2022/03/23 09:29:43;;;;;;;29.08;17.17;;;;;;;-142.75;66.52;77727.94;5012429;28;19966;-67
2022/03/23 09:32:12;;;;;;;30.85;17.25;;;;;;;-142.75;65.32;77694.44;5024691;28;20035;-67
2022/03/23 09:34:37;;;;;;;30.73;16.77;;;;;;;-142.75;63.21;77688.53;5032249;28;20033;-68
2022/03/23 09:37:49;;;;;;;33.47;17.63;;;;;;;-142.75;64.53;77680.66;5032166;28;20483;-68
2022/03/23 09:39:50;;;;;;;28.75;16.20;;;;;;;-142.75;66.46;77670.81;5024510;28;20029;-67
2022/03/23 09:42:19;;;;;;;30.73;17.00;;;;;;;-142.75;63.32;77662.94;5031917;28;20021;-67
2022/03/23 09:44:47;;;;;;;29.83;17.58;;;;;;;-142.75;63.29;77637.34;5031933;28;20395;-65
2022/03/23 09:47:13;;;;;;;30.05;17.30;;;;;;;-142.75;62.87;77664.91;5031954;28;20483;-68
2022/03/23 09:49:38;;;;;;;32.38;17.77;;;;;;;-142.75;59.38;77637.34;5031868;28;20036;-67
2022/03/23 09:52:06;;;;;;;;;;;;;;;-142.75;59.98;77637.34;5032495;28;20032;-66
2022/03/23 09:54:32;;;;;;;31.20;18.25;;;;;;;-142.75;61.70;77629.47;5031999;28;19936;-67
2022/03/23 09:56:57;;;;;;;29.15;17.42;;;;;;;-142.75;60.95;77625.53;5032191;28;20475;-67
2022/03/23 09:59:22;;;;;;;;;;;;;;;-142.75;59.72;77586.16;5031857;28;20029;-67
2022/03/23 10:01:49;;;;;;;33.20;17.98;;;;;;;-142.75;57.83;77582.22;5030416;28;20430;-68
2022/03/23 10:04:20;;;;;;;30.40;17.60;;;;;;;-142.75;59.92;77607.81;5031793;28;20022;-68
2022/03/23 10:07:09;;;;;;;32.40;17.45;;;;;;;-142.75;61.78;77566.47;5031737;28;20403;-68
2022/03/23 10:09:49;;;;;;;30.52;17.73;;;;;;;-142.75;60.00;77519.22;5031275;28;20066;-67
2022/03/23 10:12:43;;;;;;;41.88;21.67;;;;;;;-142.75;59.78;77517.25;5031072;28;20063;-68
2022/03/23 10:15:45;;;;;;;33.47;18.85;;;;;;;-142.75;56.30;77466.03;5031793;28;20049;-65
2022/03/23 10:18:44;;;;;;;40.42;21.95;;;;;;;-142.75;56.77;77533.00;5031455;28;20032;-65
2022/03/23 10:21:09;;;;;;;34.38;18.52;;;;;;;-142.75;57.17;77495.59;5030035;28;20025;-65
2022/03/23 10:23:35;;;;;;;31.23;18.13;;;;;;;-142.75;56.25;77438.47;5031074;28;20155;-65
2022/03/23 10:26:14;;;;;;;37.65;18.70;;;;;;;-142.75;58.36;77464.09;5031836;28;20024;-65
2022/03/23 10:28:39;;;;;;;38.10;19.33;;;;;;;-142.75;56.78;77448.34;5031065;28;20475;-66
2022/03/23 10:31:18;;;;;;;32.88;18.42;;;;;;;-142.75;59.31;77416.81;5030192;28;20025;-65
2022/03/23 10:33:55;;;;;;;30.45;18.05;;;;;;;-142.75;57.13;77410.91;5031158;28;20025;-65
2022/03/23 10:36:21;;;;;;;35.30;18.80;;;;;;;-142.75;62.33;77430.59;5031044;28;20026;-65
2022/03/23 10:38:47;;;;;;;27.23;17.48;;;;;;;-142.75;59.97;77408.94;5030754;28;20025;-65
2022/03/23 10:41:12;;;;;;;35.28;18.60;;;;;;;-142.75;55.42;77432.56;5026254;28;20368;-65
2022/03/23 10:43:39;;;;;;;32.50;18.25;;;;;;;-142.75;57.19;77397.13;5016919;28;20485;-66
2022/03/23 10:46:11;;;;;;;30.85;17.85;;;;;;;-142.75;55.48;77424.69;5010680;28;20024;-66
2022/03/23 10:48:49;;;;;;;28.83;18.05;;;;;;;-142.75;55.63;77385.31;5008382;28;20032;-66
2022/03/23 10:51:25;;;;;;;32.95;19.50;;;;;;;-142.75;54.35;77371.53;5019177;28;20014;-66
2022/03/23 10:53:50;;;;;;;32.05;18.45;;;;;;;-142.75;47.13;77296.72;5018966;28;20352;-65
2022/03/23 10:56:16;;;;;;;33.17;18.98;;;;;;;-142.75;51.03;77306.56;5016142;28;20032;-65
2022/03/23 10:58:41;;;;;;;33.58;18.63;;;;;;;-142.75;49.65;77279.00;5010495;28;20026;-66
2022/03/23 11:01:07;;;;;;;33.05;18.77;;;;;;;-142.75;49.82;77316.41;5010604;28;20026;-66
2022/03/23 11:03:41;;;;;;;33.63;19.77;;;;;;;-142.75;50.06;77279.00;5011145;28;20037;-66
2022/03/23 11:06:23;;;;;;;32.70;19.20;;;;;;;-142.75;50.01;77239.63;5019941;28;20090;-67
2022/03/23 11:08:49;;;;;;;29.88;18.65;;;;;;;-142.75;53.07;77308.53;5030392;28;20072;-66
2022/03/23 11:16:48;;;;;;;33.40;19.08;;;;;;;-142.75;51.83;77231.75;5030579;28;20116;-67